Pirane, Argentina
Current Conditions -  °F | °C
As of 2:00 PM on Saturday 25 Oct 2014 (Local Time) from SARF Reporting Station
Clear Clear  
Wind Chill: 35°   Ceiling: Unl
Heat Index: 36°   Visibility: 6mi
Dew Point: 17°   Wind: 9mph
Humidity: 34%   Direction: 110°ESE
Pressure: 29.83"   Gusts: NA
Location:  25.72°S, 59.1°W
Report Text: SARF 251700Z 11008KT 9999 NSC 35/17 Q1010
Loading
Personal Weather Stations






























Interactive Weather Map
Tropical Storm Tracking
New forecast layout! Learn more

10-Day Weather Forecast

Advertisements
Track Severe Weather on mobile